Time;durP1;ratioP1;P1;durP2;ratioP2;P2;SDS_P1;SDS_P2;PMS_P1;PMS_P2;Temp;Humidity;BMP_temperature;BMP_pressure;BME280_temperature;BME280_humidity;BME280_pressure;Samples;Min_cycle;Max_cycle;Signal;HPM_P1;HPM_P2
2024/01/01 00:01:46;;;;;;;3.83;3.08;;;14.60;90.50;;;;;;5097810;28;20035;-75
2024/01/01 00:04:12;;;;;;;3.92;2.95;;;14.60;90.70;;;;;;5097887;28;20047;-75
2024/01/01 00:06:38;;;;;;;3.20;2.80;;;14.60;90.60;;;;;;5099505;28;20027;-73
2024/01/01 00:09:04;;;;;;;3.85;3.08;;;14.60;90.70;;;;;;5099613;28;20035;-75
2024/01/01 00:11:30;;;;;;;6.22;3.47;;;14.60;91.00;;;;;;5098688;28;20028;-73
2024/01/01 00:13:56;;;;;;;8.48;3.30;;;14.60;91.60;;;;;;5102468;28;20069;-80
2024/01/01 00:16:22;;;;;;;10.07;4.25;;;14.60;91.70;;;;;;5103359;28;20130;-77
2024/01/01 00:18:48;;;;;;;11.55;3.80;;;14.60;91.70;;;;;;5100233;28;20031;-79
2024/01/01 00:21:14;;;;;;;12.05;3.63;;;14.50;90.80;;;;;;5096617;28;20032;-78
2024/01/01 00:23:40;;;;;;;12.63;3.17;;;14.40;90.70;;;;;;5104231;28;20119;-80
2024/01/01 00:26:06;;;;;;;6.40;3.33;;;14.30;89.40;;;;;;5101599;28;20134;-84
2024/01/01 00:28:32;;;;;;;12.60;3.75;;;14.20;88.00;;;;;;5086558;28;20039;-81
2024/01/01 00:30:58;;;;;;;9.40;2.97;;;14.00;86.50;;;;;;5088174;28;20032;-82
2024/01/01 00:33:24;;;;;;;7.95;3.28;;;13.90;85.60;;;;;;5088151;28;20036;-80
2024/01/01 00:35:50;;;;;;;4.40;2.85;;;13.80;86.10;;;;;;5100519;28;20100;-80
2024/01/01 00:38:16;;;;;;;7.30;2.72;;;13.70;85.40;;;;;;5083551;28;20035;-79
2024/01/01 00:40:42;;;;;;;5.50;2.92;;;13.60;85.50;;;;;;5088065;28;20039;-78
2024/01/01 00:43:10;;;;;;;8.25;3.00;;;13.50;85.50;;;;;;5087630;28;20166;-83
2024/01/01 00:45:36;;;;;;;3.83;2.72;;;13.40;85.50;;;;;;5088523;28;20521;-86
2024/01/01 00:48:03;;;;;;;4.43;3.00;;;13.40;85.10;;;;;;5085670;28;20048;-85
2024/01/01 00:50:29;;;;;;;9.45;2.75;;;13.20;84.60;;;;;;5101104;28;20544;-81
2024/01/01 00:52:55;;;;;;;6.25;3.28;;;13.20;84.70;;;;;;5101537;28;20035;-86
2024/01/01 00:55:21;;;;;;;2.92;2.03;;;13.10;86.00;;;;;;5089519;28;20032;-89
2024/01/01 00:57:47;;;;;;;3.88;2.55;;;13.00;86.10;;;;;;5092429;28;20043;-88
2024/01/01 01:00:14;;;;;;;5.20;2.58;;;13.00;85.40;;;;;;5106747;28;20039;-86
2024/01/01 01:02:40;;;;;;;4.40;2.53;;;12.90;84.90;;;;;;5090220;28;20034;-87
2024/01/01 01:05:06;;;;;;;7.55;2.65;;;12.80;84.90;;;;;;5075970;28;20047;-87
2024/01/01 01:07:32;;;;;;;4.32;2.55;;;12.70;84.70;;;;;;5093279;28;20178;-88
2024/01/01 01:09:58;;;;;;;3.92;2.30;;;12.60;84.80;;;;;;5092893;28;20031;-88
2024/01/01 01:12:24;;;;;;;5.18;2.78;;;12.50;84.90;;;;;;5104133;28;20386;-89
2024/01/01 01:14:50;;;;;;;3.40;2.25;;;12.50;84.90;;;;;;5075269;28;20039;-86
2024/01/01 01:17:17;;;;;;;4.50;2.58;;;12.40;84.90;;;;;;5104378;28;20028;-86
2024/01/01 01:19:43;;;;;;;6.40;2.63;;;12.40;84.70;;;;;;5074384;28;20036;-87
2024/01/01 01:22:09;;;;;;;2.92;2.53;;;12.30;84.50;;;;;;5103565;28;20506;-84
2024/01/01 01:24:35;;;;;;;3.95;2.40;;;12.30;83.90;;;;;;5101703;28;20046;-85
2024/01/01 01:27:02;;;;;;;3.25;2.33;;;12.20;84.00;;;;;;5105041;28;20039;-85
2024/01/01 01:29:28;;;;;;;4.97;2.53;;;12.10;83.90;;;;;;5091902;28;20035;-89
2024/01/01 01:31:54;;;;;;;3.72;2.55;;;12.10;83.30;;;;;;5091669;28;20093;-87
2024/01/01 01:34:21;;;;;;;3.88;2.13;;;12.00;83.10;;;;;;5091187;28;20525;-88
2024/01/01 01:36:47;;;;;;;2.50;2.30;;;12.00;82.80;;;;;;5106442;28;20038;-87
2024/01/01 01:39:13;;;;;;;2.25;2.00;;;11.90;82.20;;;;;;5091332;28;20184;-89
2024/01/01 01:41:39;;;;;;;2.28;1.80;;;11.80;82.10;;;;;;5091846;28;20023;-90
2024/01/01 01:44:06;;;;;;;2.88;2.10;;;11.80;82.50;;;;;;5074517;28;20172;-86
2024/01/01 01:46:33;;;;;;;3.05;2.22;;;11.70;81.90;;;;;;5090940;28;20081;-88
2024/01/01 01:49:01;;;;;;;3.00;2.20;;;11.70;81.80;;;;;;5104011;28;20036;-89
2024/01/01 01:51:28;;;;;;;2.75;2.30;;;11.60;81.50;;;;;;5101858;28;20502;-90
2024/01/01 01:53:54;;;;;;;1.95;1.75;;;11.50;82.00;;;;;;5091861;28;20390;-87
2024/01/01 01:56:21;;;;;;;3.58;2.40;;;11.50;81.40;;;;;;5095887;28;20035;-87
2024/01/01 01:58:47;;;;;;;5.53;2.30;;;11.40;82.00;;;;;;5084288;28;20041;-89
2024/01/01 02:01:13;;;;;;;3.45;2.00;;;11.40;82.50;;;;;;5092441;28;20540;-86
2024/01/01 02:03:39;;;;;;;3.50;2.10;;;11.40;82.10;;;;;;5073410;28;20028;-87
2024/01/01 02:06:06;;;;;;;2.58;2.10;;;11.30;81.70;;;;;;5104705;28;20485;-86
2024/01/01 02:08:32;;;;;;;3.25;1.92;;;11.20;81.90;;;;;;5074679;28;20490;-85
2024/01/01 02:10:59;;;;;;;3.78;1.73;;;11.20;81.60;;;;;;5073393;28;20036;-87
2024/01/01 02:13:27;;;;;;;2.38;2.17;;;11.10;81.20;;;;;;5090309;28;20036;-87
2024/01/01 02:15:53;;;;;;;3.95;1.90;;;11.10;81.10;;;;;;5073042;28;20126;-87
2024/01/01 02:18:20;;;;;;;2.38;1.83;;;11.10;81.60;;;;;;5104249;28;20043;-89
2024/01/01 02:20:46;;;;;;;2.03;1.80;;;11.00;81.60;;;;;;5075178;28;20501;-87
2024/01/01 02:23:16;;;;;;;2.22;2.03;;;11.00;82.10;;;;;;5074133;28;20115;-87
2024/01/01 02:25:42;;;;;;;1.95;1.75;;;10.90;81.00;;;;;;5075227;28;21351;-89
2024/01/01 02:28:09;;;;;;;2.53;2.30;;;10.90;81.00;;;;;;5090604;28;20032;-87
2024/01/01 02:30:35;;;;;;;3.17;1.95;;;10.90;81.90;;;;;;5089454;28;20406;-88
2024/01/01 02:33:07;;;;;;;2.28;1.90;;;10.80;80.90;;;;;;5074377;27;20037;-87
2024/01/01 02:35:34;;;;;;;2.45;2.00;;;10.80;80.70;;;;;;5073995;28;20035;-85
2024/01/01 02:38:01;;;;;;;4.07;2.28;;;10.70;81.00;;;;;;5074142;28;20040;-86
2024/01/01 02:40:27;;;;;;;2.17;1.90;;;10.70;80.90;;;;;;5073614;28;20042;-87
2024/01/01 02:42:54;;;;;;;1.77;1.63;;;10.70;80.70;;;;;;5090495;28;20091;-86
2024/01/01 02:45:22;;;;;;;2.13;1.65;;;10.70;80.30;;;;;;5074049;28;20039;-86
2024/01/01 02:47:48;;;;;;;1.88;1.52;;;10.60;79.70;;;;;;5102666;28;20074;-86
2024/01/01 02:50:15;;;;;;;1.80;1.70;;;10.60;80.10;;;;;;5089505;28;20058;-86
2024/01/01 02:52:41;;;;;;;2.80;2.03;;;10.50;79.90;;;;;;5101613;28;20032;-86
2024/01/01 02:55:08;;;;;;;2.20;1.95;;;10.50;80.00;;;;;;5088938;28;20533;-86
2024/01/01 02:57:34;;;;;;;2.00;1.80;;;10.40;80.00;;;;;;5073086;28;20063;-84
2024/01/01 03:00:00;;;;;;;2.15;1.85;;;10.40;80.60;;;;;;5088788;28;20051;-85
2024/01/01 03:02:26;;;;;;;1.70;1.60;;;10.40;79.80;;;;;;5102634;28;20557;-88
2024/01/01 03:04:52;;;;;;;1.50;1.40;;;10.40;80.00;;;;;;5104983;28;20131;-89
2024/01/01 03:07:19;;;;;;;1.63;1.52;;;10.30;79.90;;;;;;5088130;28;20070;-90
2024/01/01 03:09:45;;;;;;;1.73;1.63;;;10.30;79.70;;;;;;5077053;28;20032;-88
2024/01/01 03:12:11;;;;;;;2.50;1.70;;;10.30;80.00;;;;;;5083598;28;20032;-87
2024/01/01 03:14:37;;;;;;;2.00;1.63;;;10.20;79.90;;;;;;5089596;28;20543;-88
2024/01/01 03:17:03;;;;;;;2.08;1.88;;;10.20;79.60;;;;;;5104306;28;20035;-87
2024/01/01 03:19:29;;;;;;;1.98;1.63;;;10.20;79.60;;;;;;5107025;28;20095;-85
2024/01/01 03:21:55;;;;;;;1.70;1.48;;;10.20;79.30;;;;;;5103149;28;20040;-87
2024/01/01 03:24:21;;;;;;;2.22;1.90;;;10.10;78.80;;;;;;5085743;28;20375;-88
2024/01/01 03:26:47;;;;;;;2.60;1.48;;;10.10;78.70;;;;;;5102376;28;20031;-85
2024/01/01 03:29:13;;;;;;;1.70;1.52;;;10.00;78.70;;;;;;5102494;28;20050;-85
2024/01/01 03:31:44;;;;;;;1.50;1.40;;;10.00;78.80;;;;;;5070760;28;20126;-85
2024/01/01 03:34:10;;;;;;;1.60;1.50;;;10.00;78.40;;;;;;5088648;28;21750;-86
2024/01/01 03:36:36;;;;;;;2.03;1.70;;;10.00;78.20;;;;;;5089468;28;20032;-85
2024/01/01 03:39:03;;;;;;;2.15;1.85;;;9.90;78.30;;;;;;5089438;28;20031;-86
2024/01/01 03:41:30;;;;;;;3.63;1.55;;;9.90;78.80;;;;;;5101872;28;20036;-81
2024/01/01 03:43:59;;;;;;;1.45;1.30;;;9.90;78.70;;;;;;5101090;28;20537;-85
2024/01/01 03:46:25;;;;;;;1.63;1.52;;;9.90;78.80;;;;;;5100047;28;20039;-85
2024/01/01 03:48:54;;;;;;;2.00;1.60;;;9.80;78.80;;;;;;5070442;28;20043;-84
2024/01/01 03:51:21;;;;;;;1.77;1.63;;;9.80;78.50;;;;;;5101436;28;20393;-85
2024/01/01 03:53:47;;;;;;;1.67;1.50;;;9.80;78.70;;;;;;5089199;28;20066;-88
2024/01/01 03:56:13;;;;;;;1.92;1.73;;;9.80;78.40;;;;;;5090138;28;20496;-88
2024/01/01 03:58:40;;;;;;;1.67;1.30;;;9.70;78.10;;;;;;5072451;28;20040;-87
2024/01/01 04:01:12;;;;;;;1.92;1.70;;;9.70;78.20;;;;;;5089631;28;20085;-85
2024/01/01 04:03:38;;;;;;;1.73;1.52;;;9.70;78.50;;;;;;5090818;28;20490;-87
2024/01/01 04:06:04;;;;;;;1.48;1.38;;;9.70;78.20;;;;;;5072367;28;20054;-87
2024/01/01 04:08:31;;;;;;;2.40;1.52;;;9.60;78.50;;;;;;5104539;28;20485;-85
2024/01/01 04:10:57;;;;;;;2.05;1.55;;;9.60;78.20;;;;;;5088257;28;20093;-86
2024/01/01 04:13:23;;;;;;;1.73;1.40;;;9.60;78.10;;;;;;5088087;28;20072;-83
2024/01/01 04:15:50;;;;;;;1.83;1.70;;;9.60;78.30;;;;;;5070894;28;20052;-89
2024/01/01 04:18:16;;;;;;;1.63;1.52;;;9.50;78.00;;;;;;5086775;28;20137;-76
2024/01/01 04:20:42;;;;;;;6.07;1.50;;;9.50;78.10;;;;;;5087099;28;20118;-74
2024/01/01 04:23:08;;;;;;;2.83;1.58;;;9.50;78.10;;;;;;5101827;28;20436;-75
2024/01/01 04:25:34;;;;;;;2.00;1.50;;;9.50;78.20;;;;;;5098093;28;20043;-75
2024/01/01 04:28:00;;;;;;;1.63;1.42;;;9.50;78.40;;;;;;5099354;28;20055;-76
2024/01/01 04:30:26;;;;;;;1.50;1.40;;;9.50;78.20;;;;;;5098404;28;20092;-75
2024/01/01 04:32:52;;;;;;;1.48;1.30;;;9.40;78.30;;;;;;5099123;28;20035;-78
2024/01/01 04:35:18;;;;;;;3.15;1.70;;;9.40;77.60;;;;;;5099382;28;20035;-78
2024/01/01 04:37:44;;;;;;;1.83;1.27;;;9.30;77.50;;;;;;5081935;28;20410;-77
2024/01/01 04:40:10;;;;;;;2.83;1.38;;;9.30;79.10;;;;;;5100677;28;20529;-77
2024/01/01 04:42:36;;;;;;;2.55;1.50;;;9.30;80.90;;;;;;5067691;28;20036;-77
2024/01/01 04:45:02;;;;;;;1.60;1.50;;;9.30;80.40;;;;;;5100996;28;20071;-76
2024/01/01 04:47:29;;;;;;;2.25;1.10;;;9.30;79.70;;;;;;5100110;28;20067;-75
2024/01/01 04:49:55;;;;;;;2.13;1.20;;;9.40;79.10;;;;;;5097171;28;20059;-76
2024/01/01 04:52:21;;;;;;;3.30;1.40;;;9.30;78.70;;;;;;5085788;28;20483;-75
2024/01/01 04:54:47;;;;;;;1.77;1.10;;;9.30;78.10;;;;;;5102568;28;20039;-76
2024/01/01 04:57:13;;;;;;;1.52;1.42;;;9.30;77.50;;;;;;5084093;28;20042;-76
2024/01/01 04:59:39;;;;;;;1.60;1.50;;;9.30;77.70;;;;;;5069267;28;20036;-76
2024/01/01 05:02:05;;;;;;;1.73;1.45;;;9.30;77.60;;;;;;5085810;28;20463;-76
2024/01/01 05:04:31;;;;;;;1.55;1.33;;;9.30;77.70;;;;;;5099217;28;20042;-77
2024/01/01 05:06:57;;;;;;;2.95;1.38;;;9.20;77.30;;;;;;5098766;28;20077;-77
2024/01/01 05:09:23;;;;;;;1.98;1.42;;;9.20;77.30;;;;;;5099104;28;20166;-77
2024/01/01 05:11:49;;;;;;;1.88;1.33;;;9.20;76.80;;;;;;5073056;28;20080;-77
2024/01/01 05:14:15;;;;;;;1.80;1.40;;;9.20;77.00;;;;;;5085901;28;20077;-77
2024/01/01 05:16:44;;;;;;;1.48;1.30;;;9.20;76.70;;;;;;5098162;28;20032;-77
2024/01/01 05:19:10;;;;;;;2.53;1.45;;;9.20;76.40;;;;;;5086144;28;20032;-76
2024/01/01 05:21:36;;;;;;;1.75;1.27;;;9.10;76.60;;;;;;5101612;28;20084;-77
2024/01/01 05:24:02;;;;;;;1.60;1.50;;;9.10;76.60;;;;;;5099272;28;20028;-76
2024/01/01 05:26:28;;;;;;;1.67;1.58;;;9.10;76.50;;;;;;5100654;28;20043;-77
2024/01/01 05:28:54;;;;;;;1.63;1.52;;;9.00;76.70;;;;;;5086269;28;20036;-75
2024/01/01 05:31:23;;;;;;;2.10;1.38;;;9.00;76.60;;;;;;5098773;28;20032;-74
2024/01/01 05:33:49;;;;;;;2.95;1.50;;;9.00;76.50;;;;;;5096441;28;20028;-76
2024/01/01 05:36:15;;;;;;;1.67;1.42;;;9.00;76.70;;;;;;5097566;28;20028;-75
2024/01/01 05:38:41;;;;;;;2.03;1.75;;;8.90;76.50;;;;;;5095715;28;20044;-75
2024/01/01 05:41:11;;;;;;;2.08;1.50;;;8.90;76.70;;;;;;5102226;28;20050;-75
2024/01/01 05:43:37;;;;;;;1.58;1.40;;;8.90;76.50;;;;;;5100307;28;20058;-75
2024/01/01 05:46:03;;;;;;;2.78;2.08;;;8.90;76.40;;;;;;5100860;28;20509;-75
2024/01/01 05:48:29;;;;;;;1.83;1.35;;;8.90;76.40;;;;;;5100109;28;20043;-77
2024/01/01 05:50:55;;;;;;;1.73;1.63;;;8.90;76.20;;;;;;5083332;28;20423;-76
2024/01/01 05:53:21;;;;;;;4.90;1.98;;;8.80;76.20;;;;;;5106016;28;20035;-77
2024/01/01 05:55:47;;;;;;;3.30;1.40;;;8.80;76.30;;;;;;5105606;28;20027;-77
2024/01/01 05:58:13;;;;;;;2.63;1.80;;;8.80;76.20;;;;;;5101198;28;20042;-75
2024/01/01 06:00:39;;;;;;;1.52;1.42;;;8.80;76.20;;;;;;5103777;27;20538;-76
2024/01/01 06:03:05;;;;;;;1.95;1.77;;;8.80;76.40;;;;;;5100868;28;20066;-75
2024/01/01 06:05:35;;;;;;;1.40;1.30;;;8.80;76.60;;;;;;5102007;28;20038;-76
2024/01/01 06:08:02;;;;;;;2.55;2.03;;;8.70;76.80;;;;;;5103252;28;20747;-76
2024/01/01 06:10:30;;;;;;;1.60;1.48;;;8.70;77.00;;;;;;5102224;28;20081;-75
2024/01/01 06:12:56;;;;;;;1.52;1.42;;;8.70;76.90;;;;;;5089165;28;20031;-76
2024/01/01 06:15:23;;;;;;;1.77;1.40;;;8.60;76.60;;;;;;5100992;28;20032;-77
2024/01/01 06:17:50;;;;;;;1.60;1.50;;;8.60;76.70;;;;;;5103098;28;20039;-77
2024/01/01 06:20:19;;;;;;;2.40;1.48;;;8.60;76.60;;;;;;5100832;28;20051;-76
2024/01/01 06:22:48;;;;;;;2.22;1.40;;;8.60;76.40;;;;;;5088557;28;20059;-76
2024/01/01 06:25:14;;;;;;;1.67;1.58;;;8.60;76.30;;;;;;5101842;28;20180;-75
2024/01/01 06:27:40;;;;;;;4.25;1.90;;;8.50;76.00;;;;;;5089072;28;20070;-77
2024/01/01 06:30:06;;;;;;;1.85;1.40;;;8.50;75.80;;;;;;5099576;28;20055;-76
2024/01/01 06:32:32;;;;;;;4.55;1.65;;;8.50;75.60;;;;;;5099601;28;20713;-77
2024/01/01 06:34:59;;;;;;;2.40;1.65;;;8.50;75.60;;;;;;5101999;28;20062;-76
2024/01/01 06:37:25;;;;;;;2.15;1.95;;;8.50;75.60;;;;;;5104483;28;20494;-76
2024/01/01 06:39:51;;;;;;;1.58;1.48;;;8.50;75.40;;;;;;5100008;28;20035;-76
2024/01/01 06:42:17;;;;;;;1.73;1.40;;;8.50;75.60;;;;;;5102752;28;20049;-76
2024/01/01 06:44:43;;;;;;;1.73;1.33;;;8.50;75.60;;;;;;5100676;28;20131;-75
2024/01/01 06:47:09;;;;;;;1.50;1.40;;;8.40;75.40;;;;;;5103717;28;20060;-75
2024/01/01 06:49:36;;;;;;;1.95;1.60;;;8.40;75.60;;;;;;5071048;28;20628;-76
2024/01/01 06:52:03;;;;;;;2.40;1.67;;;8.40;75.40;;;;;;5102163;28;20126;-76
2024/01/01 06:54:29;;;;;;;1.65;1.55;;;8.40;75.20;;;;;;5099487;28;20090;-76
2024/01/01 06:56:55;;;;;;;2.03;1.70;;;8.40;75.20;;;;;;5104944;28;20034;-76
2024/01/01 06:59:26;;;;;;;2.10;1.67;;;8.40;75.20;;;;;;5103097;28;20432;-76
2024/01/01 07:01:52;;;;;;;2.88;1.60;;;8.40;75.20;;;;;;5101297;28;20033;-75
2024/01/01 07:04:18;;;;;;;2.10;1.67;;;8.40;74.90;;;;;;5087219;28;20028;-75
2024/01/01 07:06:44;;;;;;;1.73;1.58;;;8.30;75.10;;;;;;5099695;28;20490;-76
2024/01/01 07:09:11;;;;;;;2.25;1.30;;;8.40;75.20;;;;;;5100766;28;20088;-75
2024/01/01 07:11:37;;;;;;;3.25;1.58;;;8.30;75.20;;;;;;5100280;28;20024;-75
2024/01/01 07:14:03;;;;;;;2.65;1.90;;;8.30;75.20;;;;;;5099003;28;20081;-74
2024/01/01 07:16:29;;;;;;;1.67;1.58;;;8.30;75.30;;;;;;5099965;28;20201;-77
2024/01/01 07:18:56;;;;;;;4.00;2.20;;;8.30;75.00;;;;;;5098839;28;20471;-77
2024/01/01 07:21:22;;;;;;;1.80;1.63;;;8.30;75.00;;;;;;5097018;28;20621;-76
2024/01/01 07:23:48;;;;;;;2.25;2.03;;;8.30;74.90;;;;;;5101164;28;20023;-75
2024/01/01 07:26:14;;;;;;;2.25;1.80;;;8.30;75.00;;;;;;5087216;28;20091;-77
2024/01/01 07:28:42;;;;;;;1.67;1.52;;;8.30;75.10;;;;;;5081685;28;20028;-77
2024/01/01 07:31:09;;;;;;;2.05;1.50;;;8.30;74.90;;;;;;5100837;28;20032;-76
2024/01/01 07:33:35;;;;;;;1.88;1.20;;;8.30;75.80;;;;;;5100473;28;20085;-76
2024/01/01 07:36:01;;;;;;;1.60;1.50;;;8.30;76.10;;;;;;5099829;28;20347;-76
2024/01/01 07:38:27;;;;;;;1.95;1.60;;;8.30;76.10;;;;;;5099428;28;20051;-75
2024/01/01 07:40:53;;;;;;;7.15;1.73;;;8.30;76.20;;;;;;5100075;28;20119;-75
2024/01/01 07:43:21;;;;;;;3.20;1.52;;;8.30;76.00;;;;;;5100636;28;20043;-75
2024/01/01 07:45:47;;;;;;;3.97;1.67;;;8.30;75.90;;;;;;5100468;28;20040;-75
2024/01/01 07:48:13;;;;;;;3.10;1.88;;;8.30;75.60;;;;;;5101579;28;20054;-76
2024/01/01 07:50:39;;;;;;;2.95;1.85;;;8.30;75.60;;;;;;5099463;28;20031;-76
2024/01/01 07:53:05;;;;;;;3.47;1.83;;;8.30;75.60;;;;;;5101065;28;20508;-76
2024/01/01 07:55:31;;;;;;;4.65;1.90;;;8.30;75.80;;;;;;5097921;28;20043;-76
2024/01/01 07:57:59;;;;;;;2.88;1.70;;;8.30;75.50;;;;;;5099293;28;20714;-76
2024/01/01 08:00:25;;;;;;;3.58;1.65;;;8.30;75.70;;;;;;5100206;28;20130;-76
2024/01/01 08:02:52;;;;;;;2.33;1.50;;;8.30;75.50;;;;;;5097863;28;20074;-76
2024/01/01 08:05:18;;;;;;;4.38;1.85;;;8.30;75.40;;;;;;5085942;28;20032;-76
2024/01/01 08:07:47;;;;;;;2.33;2.05;;;8.30;75.20;;;;;;5098434;28;20054;-75
2024/01/01 08:10:17;;;;;;;2.95;1.92;;;8.30;75.10;;;;;;5098575;28;20073;-76
2024/01/01 08:12:43;;;;;;;3.08;2.13;;;8.30;74.90;;;;;;5101349;28;20024;-76
2024/01/01 08:15:09;;;;;;;3.28;1.90;;;8.30;74.70;;;;;;5099274;28;20520;-76
2024/01/01 08:17:36;;;;;;;3.05;1.70;;;8.30;74.40;;;;;;5100990;28;20031;-75
2024/01/01 08:20:02;;;;;;;2.45;1.70;;;8.30;74.40;;;;;;5099304;28;20031;-76
2024/01/01 08:22:28;;;;;;;2.83;1.70;;;8.30;74.60;;;;;;5083256;28;20684;-76
2024/01/01 08:24:54;;;;;;;3.85;1.52;;;8.30;74.50;;;;;;5101893;28;20036;-75
2024/01/01 08:27:20;;;;;;;2.05;1.50;;;8.30;74.50;;;;;;5099267;27;20035;-76
2024/01/01 08:29:46;;;;;;;2.70;1.80;;;8.30;74.60;;;;;;5083942;28;20560;-75
2024/01/01 08:32:13;;;;;;;2.47;1.83;;;8.40;74.50;;;;;;5101678;28;20024;-76
2024/01/01 08:37:30;;;;;;;2.00;1.80;;;8.40;74.50;;;;;;5098673;28;20130;-75
2024/01/01 08:39:56;;;;;;;2.03;1.70;;;8.40;74.20;;;;;;5102217;28;20059;-77
2024/01/01 08:42:22;;;;;;;2.30;1.73;;;8.40;74.20;;;;;;5097341;28;20040;-76
2024/01/01 08:44:48;;;;;;;2.13;1.73;;;8.40;74.30;;;;;;5098676;28;20032;-75
2024/01/01 08:47:15;;;;;;;4.57;1.92;;;8.40;75.10;;;;;;5068768;28;20514;-75
2024/01/01 08:49:42;;;;;;;3.20;2.05;;;8.40;74.70;;;;;;5078096;28;20060;-75
2024/01/01 08:52:08;;;;;;;2.05;1.60;;;8.40;74.90;;;;;;5095325;28;20045;-74
2024/01/01 08:54:34;;;;;;;2.17;1.80;;;8.40;74.90;;;;;;5080563;28;20048;-76
2024/01/01 08:57:00;;;;;;;3.65;1.80;;;8.40;76.50;;;;;;5087426;28;20482;-75
2024/01/01 08:59:26;;;;;;;4.40;1.80;;;8.60;89.40;;;;;;5099396;28;20020;-76
2024/01/01 09:01:52;;;;;;;6.80;2.08;;;8.90;91.10;;;;;;5097461;28;20092;-76
2024/01/01 09:04:18;;;;;;;3.85;1.80;;;9.00;91.80;;;;;;5101301;28;20036;-76
2024/01/01 09:06:44;;;;;;;4.30;1.88;;;9.20;92.20;;;;;;5098094;28;20108;-76
2024/01/01 09:09:10;;;;;;;4.70;1.58;;;9.50;92.00;;;;;;5099718;28;20043;-76
2024/01/01 09:11:36;;;;;;;4.40;2.15;;;9.60;91.70;;;;;;5097938;28;20035;-77
2024/01/01 09:14:03;;;;;;;3.33;1.60;;;9.80;91.50;;;;;;5097470;28;20523;-80
2024/01/01 09:16:31;;;;;;;2.92;1.88;;;10.00;91.30;;;;;;5099928;28;20040;-77
2024/01/01 09:19:01;;;;;;;3.40;1.55;;;10.20;91.10;;;;;;5107082;28;20040;-78
2024/01/01 09:21:27;;;;;;;2.65;1.60;;;10.30;90.70;;;;;;5073573;28;20089;-79
2024/01/01 09:24:00;;;;;;;5.50;2.00;;;10.40;90.60;;;;;;5106560;28;20503;-81
2024/01/01 09:26:30;;;;;;;4.53;1.92;;;10.60;90.30;;;;;;5103331;28;20024;-80
2024/01/01 09:28:59;;;;;;;9.40;2.60;;;10.70;90.00;;;;;;5088226;28;20038;-79
2024/01/01 09:31:26;;;;;;;16.50;3.88;;;10.90;90.20;;;;;;5088608;28;20031;-80
2024/01/01 09:33:53;;;;;;;12.35;3.95;;;11.00;90.20;;;;;;5089246;28;20064;-78
2024/01/01 09:36:19;;;;;;;14.43;3.50;;;11.10;90.10;;;;;;5106788;28;20451;-78
2024/01/01 09:38:45;;;;;;;10.18;3.42;;;11.20;89.60;;;;;;5090297;28;20059;-77
2024/01/01 09:41:14;;;;;;;13.57;3.17;;;11.30;88.90;;;;;;5106852;28;20031;-81
2024/01/01 09:43:41;;;;;;;11.88;2.72;;;11.40;88.50;;;;;;5103767;27;20607;-78
2024/01/01 09:46:07;;;;;;;8.75;2.40;;;11.60;88.30;;;;;;5105929;28;20113;-80
2024/01/01 09:48:33;;;;;;;7.85;2.53;;;11.60;87.70;;;;;;5103989;28;20047;-81
2024/01/01 09:51:02;;;;;;;7.57;2.53;;;11.70;87.40;;;;;;5089265;28;20118;-78
2024/01/01 09:53:30;;;;;;;9.68;2.60;;;11.80;86.70;;;;;;5090380;28;20626;-79
2024/01/01 09:55:57;;;;;;;12.63;2.63;;;11.90;86.20;;;;;;5101384;28;20528;-81
2024/01/01 09:58:23;;;;;;;7.88;2.70;;;12.00;85.80;;;;;;5086369;28;20441;-80
2024/01/01 10:00:49;;;;;;;4.72;2.60;;;12.10;85.60;;;;;;5085757;28;20032;-80
2024/01/01 10:03:15;;;;;;;8.13;2.55;;;12.10;85.10;;;;;;5103384;28;20032;-81
2024/01/01 10:05:42;;;;;;;8.93;2.15;;;12.20;84.70;;;;;;5102600;28;20122;-80
2024/01/01 10:08:09;;;;;;;10.18;2.80;;;12.30;84.50;;;;;;5103925;28;20131;-76
2024/01/01 10:10:38;;;;;;;5.10;2.63;;;12.30;84.10;;;;;;5103643;28;20039;-76
2024/01/01 10:13:13;;;;;;;7.68;3.10;;;12.20;81.10;;;;;;5102775;28;20039;-74
2024/01/01 10:15:42;;;;;;;17.27;2.93;;;12.10;78.00;;;;;;5101746;28;20567;-75
2024/01/01 10:18:12;;;;;;;4.80;2.35;;;12.00;76.00;;;;;;5101226;28;20414;-75
2024/01/01 10:20:39;;;;;;;5.10;2.30;;;11.90;74.90;;;;;;5102446;28;20024;-74
2024/01/01 10:23:20;;;;;;;5.25;3.00;;;11.70;74.70;;;;;;5101464;28;20123;-75
2024/01/01 10:26:05;;;;;;;12.30;2.80;;;11.60;74.60;;;;;;5103907;28;20380;-75
2024/01/01 10:28:32;;;;;;;7.30;2.10;;;11.50;74.30;;;;;;5103549;27;20039;-74
2024/01/01 10:31:00;;;;;;;5.95;2.38;;;11.40;74.20;;;;;;5103352;28;20139;-75
2024/01/01 10:33:31;;;;;;;3.65;2.42;;;11.30;73.90;;;;;;5086082;28;20452;-75
2024/01/01 10:36:00;;;;;;;7.68;2.53;;;11.20;73.90;;;;;;5102769;28;20028;-75
2024/01/01 10:38:28;;;;;;;3.75;2.13;;;11.10;73.70;;;;;;5104768;28;20031;-75
2024/01/01 10:40:56;;;;;;;5.32;2.20;;;11.00;74.00;;;;;;5102969;28;20496;-75
2024/01/01 10:43:27;;;;;;;4.55;2.05;;;10.90;73.90;;;;;;5100460;28;20478;-74
2024/01/01 10:46:04;;;;;;;5.22;2.00;;;10.90;74.50;;;;;;5097536;28;20054;-75
2024/01/01 10:48:35;;;;;;;6.22;2.65;;;10.80;75.10;;;;;;5100034;28;20039;-74
2024/01/01 10:51:12;;;;;;;4.65;2.13;;;10.80;74.80;;;;;;5098809;28;20040;-74
2024/01/01 10:54:11;;;;;;;5.60;2.40;;;10.70;75.20;;;;;;5068292;28;20112;-74
2024/01/01 10:57:10;;;;;;;4.25;2.25;;;10.60;75.20;;;;;;5100320;28;20067;-78
2024/01/01 11:00:19;;;;;;;2.28;2.00;;;10.50;75.30;;;;;;5070752;28;20047;-79
2024/01/01 11:02:46;;;;;;;5.75;2.08;;;10.40;75.30;;;;;;4980631;28;20044;-78
2024/01/01 11:05:12;;;;;;;3.70;2.45;;;10.30;75.10;;;;;;4995464;28;20471;-79
2024/01/01 11:07:58;;;;;;;3.33;2.63;;;10.30;75.50;;;;;;5013378;28;20619;-79
2024/01/01 11:10:34;;;;;;;;;;;10.30;75.50;;;;;;5009154;28;20061;-78
2024/01/01 11:13:01;;;;;;;3.08;2.50;;;10.30;75.70;;;;;;5019726;28;19924;-80
2024/01/01 11:15:43;;;;;;;4.07;2.33;;;10.10;76.10;;;;;;4990610;28;20056;-80
2024/01/01 11:18:19;;;;;;;6.25;2.10;;;10.10;76.20;;;;;;5017247;28;20026;-80
2024/01/01 11:20:48;;;;;;;;;;;10.10;76.50;;;;;;5010321;28;20152;-80
2024/01/01 11:23:41;;;;;;;6.70;2.47;;;10.10;77.10;;;;;;5008652;28;19917;-80
2024/01/01 11:26:23;;;;;;;5.35;2.60;;;10.00;77.10;;;;;;5003750;28;20033;-79
2024/01/01 11:28:56;;;;;;;4.90;2.58;;;9.90;76.70;;;;;;5017689;28;20064;-77
2024/01/01 11:31:24;;;;;;;5.05;2.53;;;9.90;76.60;;;;;;5016777;28;20091;-78
2024/01/01 11:33:59;;;;;;;3.83;2.40;;;9.90;76.40;;;;;;5018085;28;20034;-77
2024/01/01 11:36:26;;;;;;;3.17;2.20;;;9.80;76.20;;;;;;4989363;28;20030;-77
2024/01/01 11:38:53;;;;;;;9.77;2.40;;;9.70;75.90;;;;;;5036881;28;20039;-80
2024/01/01 11:41:26;;;;;;;5.70;2.28;;;9.80;79.70;;;;;;5086744;28;20030;-79
2024/01/01 11:45:20;;;;;;;4.47;2.38;;;9.70;78.50;;;;;;5111137;27;20122;-77
2024/01/01 11:47:46;;;;;;;3.85;2.20;;;9.90;84.50;;;;;;5078700;28;20030;-77
2024/01/01 11:50:13;;;;;;;6.40;1.92;;;10.10;87.40;;;;;;5077154;28;20086;-80
2024/01/01 11:52:40;;;;;;;3.85;1.55;;;10.20;87.30;;;;;;5064489;28;20033;-85
2024/01/01 11:55:06;;;;;;;8.45;2.45;;;10.40;87.00;;;;;;5076301;28;20048;-79
2024/01/01 11:57:34;;;;;;;3.03;1.92;;;10.40;84.80;;;;;;5075666;28;20037;-81
2024/01/01 12:00:07;;;;;;;3.72;2.47;;;10.30;82.00;;;;;;5060842;28;20028;-83
2024/01/01 12:02:36;;;;;;;4.75;2.20;;;10.30;80.30;;;;;;5066370;28;20119;-84
2024/01/01 12:05:02;;;;;;;4.25;2.00;;;10.20;78.60;;;;;;5076029;28;20429;-85
2024/01/01 12:07:32;;;;;;;3.55;2.20;;;10.10;77.60;;;;;;5080791;28;21740;-85
2024/01/01 12:10:10;;;;;;;4.03;2.28;;;10.10;76.50;;;;;;5077815;28;20025;-84
2024/01/01 12:12:38;;;;;;;4.00;2.33;;;10.00;75.50;;;;;;5078620;28;20041;-84
2024/01/01 12:15:18;;;;;;;5.63;2.33;;;9.90;74.70;;;;;;5064238;28;20032;-85
2024/01/01 12:17:52;;;;;;;3.28;2.72;;;9.90;74.20;;;;;;5065906;28;20453;-83
2024/01/01 12:20:20;;;;;;;5.50;2.70;;;9.80;73.70;;;;;;5041624;28;20525;-83
2024/01/01 12:22:48;;;;;;;4.60;2.33;;;9.80;73.30;;;;;;5039455;28;20044;-83
2024/01/01 12:25:17;;;;;;;3.13;2.38;;;9.70;72.60;;;;;;5055874;28;20033;-83
2024/01/01 12:27:59;;;;;;;3.72;2.38;;;9.70;72.50;;;;;;5043758;28;20028;-83
2024/01/01 12:30:27;;;;;;;4.35;2.80;;;9.60;72.90;;;;;;5049978;28;20116;-85
2024/01/01 12:32:56;;;;;;;2.75;2.40;;;9.60;71.90;;;;;;5079612;28;20172;-86
2024/01/01 12:35:22;;;;;;;4.35;2.58;;;9.50;71.50;;;;;;5076963;28;20567;-83
2024/01/01 12:37:48;;;;;;;5.22;2.42;;;9.50;71.40;;;;;;5076886;28;20406;-83
2024/01/01 12:40:18;;;;;;;4.18;2.33;;;9.50;71.30;;;;;;5081726;28;20032;-84
2024/01/01 12:42:44;;;;;;;2.95;2.33;;;9.40;71.10;;;;;;5077796;28;20043;-83
2024/01/01 12:45:14;;;;;;;3.92;2.60;;;9.30;71.10;;;;;;5062641;28;20052;-83
2024/01/01 12:47:40;;;;;;;3.20;2.25;;;9.30;71.50;;;;;;5063516;28;20063;-83
2024/01/01 12:50:07;;;;;;;2.45;2.10;;;9.30;71.10;;;;;;5074173;28;20062;-84
2024/01/01 12:52:38;;;;;;;3.47;2.58;;;9.20;71.00;;;;;;5047666;28;20510;-84
2024/01/01 12:55:08;;;;;;;4.55;2.70;;;9.20;70.90;;;;;;5055017;28;20045;-84
2024/01/01 12:57:34;;;;;;;2.60;2.40;;;9.20;70.90;;;;;;5031256;28;20063;-83
2024/01/01 13:00:00;;;;;;;3.45;2.58;;;9.10;70.90;;;;;;5030367;28;20037;-84